sensor_id;sensor_type;location;lat;lon;timestamp;pressure;altitude;pressure_sealevel;temperature;humidity
58243;BME280;50118;53.232;8.252;2022-08-19T00:02:03;101271.84;;;15.61;100.00
58243;BME280;50118;53.232;8.252;2022-08-19T00:04:39;101264.63;;;15.62;100.00
58243;BME280;50118;53.232;8.252;2022-08-19T00:07:06;101261.44;;;15.66;100.00
58243;BME280;50118;53.232;8.252;2022-08-19T00:09:32;101257.56;;;15.61;100.00
58243;BME280;50118;53.232;8.252;2022-08-19T00:11:59;101259.09;;;15.63;100.00
58243;BME280;50118;53.232;8.252;2022-08-19T00:14:34;101260.41;;;15.59;100.00
58243;BME280;50118;53.232;8.252;2022-08-19T00:17:00;101262.09;;;15.60;100.00
58243;BME280;50118;53.232;8.252;2022-08-19T00:19:28;101263.25;;;15.58;100.00
58243;BME280;50118;53.232;8.252;2022-08-19T00:21:54;101259.75;;;15.57;100.00
58243;BME280;50118;53.232;8.252;2022-08-19T00:24:21;101258.06;;;15.56;100.00
58243;BME280;50118;53.232;8.252;2022-08-19T00:26:51;101251.19;;;15.54;100.00
58243;BME280;50118;53.232;8.252;2022-08-19T00:29:19;101251.34;;;15.52;100.00
58243;BME280;50118;53.232;8.252;2022-08-19T00:31:45;101245.78;;;15.45;100.00
58243;BME280;50118;53.232;8.252;2022-08-19T00:34:12;101244.28;;;15.43;100.00
58243;BME280;50118;53.232;8.252;2022-08-19T00:36:42;101254.66;;;15.46;100.00
58243;BME280;50118;53.232;8.252;2022-08-19T00:39:09;101251.63;;;15.41;100.00
58243;BME280;50118;53.232;8.252;2022-08-19T00:41:53;101252.16;;;15.36;100.00
58243;BME280;50118;53.232;8.252;2022-08-19T00:44:25;101251.97;;;15.29;100.00
58243;BME280;50118;53.232;8.252;2022-08-19T00:46:52;101249.28;;;15.29;100.00
58243;BME280;50118;53.232;8.252;2022-08-19T00:53:04;101251.28;;;15.19;100.00
58243;BME280;50118;53.232;8.252;2022-08-19T00:55:31;101248.94;;;15.24;100.00
58243;BME280;50118;53.232;8.252;2022-08-19T00:58:36;101248.59;;;15.19;100.00
58243;BME280;50118;53.232;8.252;2022-08-19T01:01:05;101244.53;;;15.15;100.00
58243;BME280;50118;53.232;8.252;2022-08-19T01:03:33;101237.31;;;15.07;100.00
58243;BME280;50118;53.232;8.252;2022-08-19T01:05:58;101243.47;;;15.00;100.00
58243;BME280;50118;53.232;8.252;2022-08-19T01:08:25;101234.75;;;14.98;100.00
58243;BME280;50118;53.232;8.252;2022-08-19T01:10:56;101251.16;;;14.94;100.00
58243;BME280;50118;53.232;8.252;2022-08-19T01:13:26;101246.47;;;14.88;100.00
58243;BME280;50118;53.232;8.252;2022-08-19T01:15:58;101260.03;;;14.87;100.00
58243;BME280;50118;53.232;8.252;2022-08-19T01:18:36;101264.06;;;14.91;100.00
58243;BME280;50118;53.232;8.252;2022-08-19T01:27:04;101248.63;;;14.85;100.00
58243;BME280;50118;53.232;8.252;2022-08-19T01:29:30;101246.94;;;14.84;100.00
58243;BME280;50118;53.232;8.252;2022-08-19T01:31:56;101244.78;;;14.87;100.00
58243;BME280;50118;53.232;8.252;2022-08-19T01:37:00;101253.78;;;14.78;100.00
58243;BME280;50118;53.232;8.252;2022-08-19T01:39:30;101241.03;;;14.72;100.00
58243;BME280;50118;53.232;8.252;2022-08-19T01:42:03;101236.50;;;14.72;100.00
58243;BME280;50118;53.232;8.252;2022-08-19T01:44:32;101233.66;;;14.74;100.00
58243;BME280;50118;53.232;8.252;2022-08-19T01:46:58;101230.44;;;14.70;100.00
58243;BME280;50118;53.232;8.252;2022-08-19T01:49:24;101227.25;;;14.67;100.00
58243;BME280;50118;53.232;8.252;2022-08-19T01:51:52;101222.19;;;14.64;100.00
58243;BME280;50118;53.232;8.252;2022-08-19T01:54:20;101222.84;;;14.57;100.00
58243;BME280;50118;53.232;8.252;2022-08-19T01:59:55;101223.16;;;14.54;100.00
58243;BME280;50118;53.232;8.252;2022-08-19T02:02:22;101221.75;;;14.50;100.00
58243;BME280;50118;53.232;8.252;2022-08-19T02:04:47;101203.66;;;14.44;100.00
58243;BME280;50118;53.232;8.252;2022-08-19T02:07:15;101202.78;;;14.35;100.00
58243;BME280;50118;53.232;8.252;2022-08-19T02:09:44;101202.94;;;14.34;100.00
58243;BME280;50118;53.232;8.252;2022-08-19T02:12:09;101198.88;;;14.30;100.00
58243;BME280;50118;53.232;8.252;2022-08-19T02:14:45;101200.50;;;14.23;100.00
58243;BME280;50118;53.232;8.252;2022-08-19T02:17:38;101187.56;;;14.18;100.00
58243;BME280;50118;53.232;8.252;2022-08-19T02:20:05;101187.06;;;14.14;100.00
58243;BME280;50118;53.232;8.252;2022-08-19T02:22:32;101191.22;;;14.09;100.00
58243;BME280;50118;53.232;8.252;2022-08-19T02:24:58;101188.31;;;14.02;100.00
58243;BME280;50118;53.232;8.252;2022-08-19T02:27:24;101201.19;;;13.98;100.00
58243;BME280;50118;53.232;8.252;2022-08-19T02:29:50;101191.09;;;13.92;100.00
58243;BME280;50118;53.232;8.252;2022-08-19T02:32:17;101194.94;;;13.90;100.00
58243;BME280;50118;53.232;8.252;2022-08-19T02:34:43;101197.09;;;13.86;100.00
58243;BME280;50118;53.232;8.252;2022-08-19T02:37:09;101195.47;;;13.75;100.00
58243;BME280;50118;53.232;8.252;2022-08-19T02:39:54;101188.75;;;13.71;100.00
58243;BME280;50118;53.232;8.252;2022-08-19T02:42:20;101188.75;;;13.71;100.00
58243;BME280;50118;53.232;8.252;2022-08-19T02:44:45;101195.09;;;13.70;100.00
58243;BME280;50118;53.232;8.252;2022-08-19T02:47:11;101185.84;;;13.64;100.00
58243;BME280;50118;53.232;8.252;2022-08-19T02:49:38;101190.00;;;13.59;100.00
58243;BME280;50118;53.232;8.252;2022-08-19T02:52:04;101189.28;;;13.57;100.00
58243;BME280;50118;53.232;8.252;2022-08-19T02:54:29;101197.66;;;13.54;100.00
58243;BME280;50118;53.232;8.252;2022-08-19T02:56:54;101203.44;;;13.49;100.00
58243;BME280;50118;53.232;8.252;2022-08-19T02:59:20;101200.47;;;13.52;100.00
58243;BME280;50118;53.232;8.252;2022-08-19T03:01:46;101202.66;;;13.57;100.00
58243;BME280;50118;53.232;8.252;2022-08-19T03:04:13;101199.16;;;13.56;100.00
58243;BME280;50118;53.232;8.252;2022-08-19T03:06:43;101195.97;;;13.53;100.00
58243;BME280;50118;53.232;8.252;2022-08-19T03:09:09;101202.78;;;13.47;100.00
58243;BME280;50118;53.232;8.252;2022-08-19T03:11:35;101201.91;;;13.47;100.00
58243;BME280;50118;53.232;8.252;2022-08-19T03:14:02;101195.50;;;13.39;100.00
58243;BME280;50118;53.232;8.252;2022-08-19T03:16:31;101204.16;;;13.33;100.00
58243;BME280;50118;53.232;8.252;2022-08-19T03:18:57;101202.53;;;13.40;100.00
58243;BME280;50118;53.232;8.252;2022-08-19T03:21:28;101200.00;;;13.39;100.00
58243;BME280;50118;53.232;8.252;2022-08-19T03:23:56;101210.72;;;13.39;100.00
58243;BME280;50118;53.232;8.252;2022-08-19T03:26:22;101203.41;;;13.31;100.00
58243;BME280;50118;53.232;8.252;2022-08-19T03:28:48;101200.34;;;13.26;100.00
58243;BME280;50118;53.232;8.252;2022-08-19T03:31:18;101196.59;;;13.19;100.00
58243;BME280;50118;53.232;8.252;2022-08-19T03:33:45;101203.63;;;13.20;100.00
58243;BME280;50118;53.232;8.252;2022-08-19T03:36:18;101194.50;;;13.13;100.00
58243;BME280;50118;53.232;8.252;2022-08-19T03:38:52;101194.22;;;13.16;100.00
58243;BME280;50118;53.232;8.252;2022-08-19T03:41:22;101193.69;;;13.12;100.00
58243;BME280;50118;53.232;8.252;2022-08-19T03:43:48;101202.16;;;13.07;100.00
58243;BME280;50118;53.232;8.252;2022-08-19T03:46:21;101204.38;;;13.12;100.00
58243;BME280;50118;53.232;8.252;2022-08-19T03:48:47;101204.38;;;13.12;100.00
58243;BME280;50118;53.232;8.252;2022-08-19T03:51:19;101197.38;;;13.11;100.00
58243;BME280;50118;53.232;8.252;2022-08-19T03:53:45;101194.22;;;13.16;100.00
58243;BME280;50118;53.232;8.252;2022-08-19T03:56:11;101201.25;;;13.17;100.00
58243;BME280;50118;53.232;8.252;2022-08-19T03:58:38;101209.28;;;13.17;100.00
58243;BME280;50118;53.232;8.252;2022-08-19T04:01:08;101207.88;;;13.13;100.00
58243;BME280;50118;53.232;8.252;2022-08-19T04:03:34;101200.88;;;13.12;100.00
58243;BME280;50118;53.232;8.252;2022-08-19T04:06:15;101198.50;;;13.08;100.00
58243;BME280;50118;53.232;8.252;2022-08-19T04:08:42;101203.31;;;13.05;100.00
58243;BME280;50118;53.232;8.252;2022-08-19T04:11:11;101203.44;;;13.03;100.00
58243;BME280;50118;53.232;8.252;2022-08-19T04:13:37;101210.50;;;13.04;100.00
58243;BME280;50118;53.232;8.252;2022-08-19T04:16:04;101217.81;;;13.02;100.00
58243;BME280;50118;53.232;8.252;2022-08-19T04:18:31;101222.16;;;13.03;100.00
58243;BME280;50118;53.232;8.252;2022-08-19T04:20:58;101219.34;;;13.05;100.00
58243;BME280;50118;53.232;8.252;2022-08-19T04:23:24;101214.84;;;13.05;100.00
58243;BME280;50118;53.232;8.252;2022-08-19T04:25:50;101210.50;;;13.04;100.00
58243;BME280;50118;53.232;8.252;2022-08-19T04:28:16;101212.31;;;13.04;100.00
58243;BME280;50118;53.232;8.252;2022-08-19T04:30:45;101216.53;;;13.06;100.00
58243;BME280;50118;53.232;8.252;2022-08-19T04:33:13;101213.84;;;13.06;100.00
58243;BME280;50118;53.232;8.252;2022-08-19T04:35:42;101221.59;;;13.10;100.00
58243;BME280;50118;53.232;8.252;2022-08-19T04:38:09;101217.59;;;13.14;100.00
58243;BME280;50118;53.232;8.252;2022-08-19T04:40:41;101233.94;;;13.11;100.00
58243;BME280;50118;53.232;8.252;2022-08-19T04:43:25;101237.63;;;13.10;100.00
58243;BME280;50118;53.232;8.252;2022-08-19T04:45:56;101223.63;;;13.16;100.00
58243;BME280;50118;53.232;8.252;2022-08-19T04:48:22;101232.06;;;13.21;100.00
58243;BME280;50118;53.232;8.252;2022-08-19T04:50:58;101233.75;;;13.22;100.00
58243;BME280;50118;53.232;8.252;2022-08-19T04:53:34;101234.13;;;13.27;100.00
58243;BME280;50118;53.232;8.252;2022-08-19T04:56:05;101236.63;;;13.38;100.00
58243;BME280;50118;53.232;8.252;2022-08-19T04:58:32;101226.31;;;13.43;100.00
58243;BME280;50118;53.232;8.252;2022-08-19T05:00:58;101236.00;;;13.44;100.00
58243;BME280;50118;53.232;8.252;2022-08-19T05:03:26;101241.66;;;13.41;100.00
58243;BME280;50118;53.232;8.252;2022-08-19T05:05:52;101247.00;;;13.41;100.00
58243;BME280;50118;53.232;8.252;2022-08-19T05:08:19;101250.66;;;13.50;100.00
58243;BME280;50118;53.232;8.252;2022-08-19T05:10:48;101241.44;;;13.53;100.00
58243;BME280;50118;53.232;8.252;2022-08-19T05:13:16;101244.22;;;13.61;100.00
58243;BME280;50118;53.232;8.252;2022-08-19T05:15:43;101244.59;;;13.66;100.00
58243;BME280;50118;53.232;8.252;2022-08-19T05:18:17;101251.41;;;13.78;100.00
58243;BME280;50118;53.232;8.252;2022-08-19T05:21:06;101258.56;;;13.96;100.00
58243;BME280;50118;53.232;8.252;2022-08-19T05:23:53;101254.09;;;14.23;100.00
58243;BME280;50118;53.232;8.252;2022-08-19T05:26:19;101263.59;;;14.43;100.00
58243;BME280;50118;53.232;8.252;2022-08-19T05:28:45;101261.28;;;14.66;100.00
58243;BME280;50118;53.232;8.252;2022-08-19T05:31:10;101255.09;;;15.17;100.00
58243;BME280;50118;53.232;8.252;2022-08-19T05:33:40;101240.66;;;15.85;100.00
58243;BME280;50118;53.232;8.252;2022-08-19T05:36:06;101231.13;;;16.63;100.00
58243;BME280;50118;53.232;8.252;2022-08-19T05:38:34;101230.25;;;17.18;100.00
58243;BME280;50118;53.232;8.252;2022-08-19T05:41:10;101225.69;;;17.73;100.00
58243;BME280;50118;53.232;8.252;2022-08-19T05:43:36;101217.63;;;17.97;97.41
58243;BME280;50118;53.232;8.252;2022-08-19T05:46:05;101213.22;;;17.96;96.30
58243;BME280;50118;53.232;8.252;2022-08-19T05:48:34;101213.03;;;17.74;98.86
58243;BME280;50118;53.232;8.252;2022-08-19T05:51:06;101213.28;;;17.41;100.00
58243;BME280;50118;53.232;8.252;2022-08-19T05:53:34;101221.06;;;17.36;100.00
58243;BME280;50118;53.232;8.252;2022-08-19T05:56:07;101217.44;;;16.97;100.00
58243;BME280;50118;53.232;8.252;2022-08-19T05:58:34;101217.97;;;16.85;100.00
58243;BME280;50118;53.232;8.252;2022-08-19T06:01:00;101212.28;;;16.71;100.00
58243;BME280;50118;53.232;8.252;2022-08-19T06:03:32;101221.63;;;16.84;100.00
58243;BME280;50118;53.232;8.252;2022-08-19T06:05:58;101209.28;;;17.06;100.00
58243;BME280;50118;53.232;8.252;2022-08-19T06:08:26;101213.16;;;17.11;100.00
58243;BME280;50118;53.232;8.252;2022-08-19T06:10:53;101205.69;;;17.22;100.00
58243;BME280;50118;53.232;8.252;2022-08-19T06:13:20;101202.56;;;17.33;100.00
58243;BME280;50118;53.232;8.252;2022-08-19T06:15:46;101204.91;;;17.36;100.00
58243;BME280;50118;53.232;8.252;2022-08-19T06:18:20;101203.94;;;17.52;100.00
58243;BME280;50118;53.232;8.252;2022-08-19T06:20:46;101205.22;;;17.64;100.00
58243;BME280;50118;53.232;8.252;2022-08-19T06:23:12;101203.41;;;17.57;100.00
58243;BME280;50118;53.232;8.252;2022-08-19T06:25:38;101210.94;;;17.38;100.00
58243;BME280;50118;53.232;8.252;2022-08-19T06:28:10;101219.72;;;17.40;100.00
58243;BME280;50118;53.232;8.252;2022-08-19T06:30:36;101214.59;;;17.22;100.00
58243;BME280;50118;53.232;8.252;2022-08-19T06:33:02;101225.84;;;17.26;100.00
58243;BME280;50118;53.232;8.252;2022-08-19T06:35:27;101218.31;;;17.44;100.00
58243;BME280;50118;53.232;8.252;2022-08-19T06:37:55;101223.59;;;17.61;100.00
58243;BME280;50118;53.232;8.252;2022-08-19T06:40:41;101224.66;;;17.51;100.00
58243;BME280;50118;53.232;8.252;2022-08-19T06:43:06;101220.72;;;17.39;100.00
58243;BME280;50118;53.232;8.252;2022-08-19T06:45:32;101216.41;;;17.53;100.00
58243;BME280;50118;53.232;8.252;2022-08-19T06:47:58;101228.13;;;17.83;100.00
58243;BME280;50118;53.232;8.252;2022-08-19T06:50:23;101226.34;;;17.99;100.00
58243;BME280;50118;53.232;8.252;2022-08-19T06:52:49;101231.97;;;18.12;100.00
58243;BME280;50118;53.232;8.252;2022-08-19T06:55:15;101238.72;;;18.08;100.00
58243;BME280;50118;53.232;8.252;2022-08-19T06:57:41;101229.69;;;18.01;100.00
58243;BME280;50118;53.232;8.252;2022-08-19T07:00:08;101230.13;;;18.27;98.44
58243;BME280;50118;53.232;8.252;2022-08-19T07:02:41;101227.53;;;18.49;96.54
58243;BME280;50118;53.232;8.252;2022-08-19T07:05:07;101227.16;;;18.52;94.20
58243;BME280;50118;53.232;8.252;2022-08-19T07:07:33;101229.19;;;18.50;96.13
58243;BME280;50118;53.232;8.252;2022-08-19T07:09:59;101230.13;;;18.57;96.69
58243;BME280;50118;53.232;8.252;2022-08-19T07:12:26;101229.19;;;18.35;97.57
58243;BME280;50118;53.232;8.252;2022-08-19T07:14:52;101238.50;;;18.47;98.27
58243;BME280;50118;53.232;8.252;2022-08-19T07:17:17;101232.94;;;18.49;96.80
58243;BME280;50118;53.232;8.252;2022-08-19T07:19:45;101241.03;;;18.49;95.41
58243;BME280;50118;53.232;8.252;2022-08-19T07:22:10;101242.88;;;18.63;94.92
58243;BME280;50118;53.232;8.252;2022-08-19T07:24:37;101243.91;;;18.62;93.51
58243;BME280;50118;53.232;8.252;2022-08-19T07:27:21;101245.03;;;18.83;91.23
58243;BME280;50118;53.232;8.252;2022-08-19T07:29:46;101247.91;;;18.81;92.44
58243;BME280;50118;53.232;8.252;2022-08-19T07:32:12;101248.41;;;18.85;91.29
58243;BME280;50118;53.232;8.252;2022-08-19T07:34:37;101244.94;;;18.91;91.02
58243;BME280;50118;53.232;8.252;2022-08-19T07:37:06;101249.94;;;18.79;89.87
58243;BME280;50118;53.232;8.252;2022-08-19T07:39:34;101249.97;;;18.94;90.50
58243;BME280;50118;53.232;8.252;2022-08-19T07:42:02;101251.91;;;19.00;89.80
58243;BME280;50118;53.232;8.252;2022-08-19T07:44:28;101256.47;;;19.00;88.15
58243;BME280;50118;53.232;8.252;2022-08-19T07:46:56;101268.28;;;19.14;87.68
58243;BME280;50118;53.232;8.252;2022-08-19T07:49:22;101261.69;;;19.01;88.55
58243;BME280;50118;53.232;8.252;2022-08-19T07:51:52;101268.38;;;19.06;89.31
58243;BME280;50118;53.232;8.252;2022-08-19T07:54:20;101271.56;;;19.09;88.19
58243;BME280;50118;53.232;8.252;2022-08-19T07:56:46;101276.56;;;19.12;85.94
58243;BME280;50118;53.232;8.252;2022-08-19T07:59:12;101274.22;;;19.24;87.09
58243;BME280;50118;53.232;8.252;2022-08-19T08:01:38;101274.75;;;19.34;86.96
58243;BME280;50118;53.232;8.252;2022-08-19T08:04:05;101282.19;;;19.32;86.46
58243;BME280;50118;53.232;8.252;2022-08-19T08:06:50;101290.69;;;19.29;85.72
58243;BME280;50118;53.232;8.252;2022-08-19T08:09:37;101294.31;;;19.36;85.33
58243;BME280;50118;53.232;8.252;2022-08-19T08:12:07;101288.53;;;19.39;84.98
58243;BME280;50118;53.232;8.252;2022-08-19T08:14:55;101281.81;;;19.35;85.02
58243;BME280;50118;53.232;8.252;2022-08-19T08:17:23;101295.13;;;19.37;84.66
58243;BME280;50118;53.232;8.252;2022-08-19T08:19:49;101286.09;;;19.45;84.81
58243;BME280;50118;53.232;8.252;2022-08-19T08:22:18;101294.31;;;19.36;83.25
58243;BME280;50118;53.232;8.252;2022-08-19T08:25:14;101287.75;;;19.46;80.99
58243;BME280;50118;53.232;8.252;2022-08-19T08:27:43;101294.06;;;19.53;81.14
58243;BME280;50118;53.232;8.252;2022-08-19T08:30:11;101301.22;;;19.60;83.30
58243;BME280;50118;53.232;8.252;2022-08-19T08:32:38;101297.50;;;19.62;83.28
58243;BME280;50118;53.232;8.252;2022-08-19T08:35:06;101299.63;;;19.66;82.81
58243;BME280;50118;53.232;8.252;2022-08-19T08:37:32;101309.13;;;19.77;82.06
58243;BME280;50118;53.232;8.252;2022-08-19T08:39:58;101299.53;;;19.96;80.83
58243;BME280;50118;53.232;8.252;2022-08-19T08:42:34;101309.59;;;19.81;81.16
58243;BME280;50118;53.232;8.252;2022-08-19T08:45:13;101309.31;;;19.75;81.39
58243;BME280;50118;53.232;8.252;2022-08-19T08:47:43;101308.19;;;19.33;84.01
58243;BME280;50118;53.232;8.252;2022-08-19T08:50:39;101315.56;;;19.39;84.17
58243;BME280;50118;53.232;8.252;2022-08-19T08:53:06;101314.47;;;19.19;85.18
58243;BME280;50118;53.232;8.252;2022-08-19T08:55:33;101312.97;;;19.53;83.24
58243;BME280;50118;53.232;8.252;2022-08-19T08:58:55;101320.06;;;19.54;84.02
58243;BME280;50118;53.232;8.252;2022-08-19T09:01:12;101312.22;;;19.59;83.68
58243;BME280;50118;53.232;8.252;2022-08-19T09:03:41;101311.31;;;20.10;83.27
58243;BME280;50118;53.232;8.252;2022-08-19T09:08:51;101310.88;;;20.06;80.26
58243;BME280;50118;53.232;8.252;2022-08-19T09:12:04;101306.34;;;19.92;82.02
58243;BME280;50118;53.232;8.252;2022-08-19T09:16:59;101313.47;;;20.71;78.68
58243;BME280;50118;53.232;8.252;2022-08-19T09:19:27;101314.03;;;20.95;76.11
58243;BME280;50118;53.232;8.252;2022-08-19T09:21:56;101299.81;;;22.02;72.67
58243;BME280;50118;53.232;8.252;2022-08-19T09:24:21;101292.75;;;22.35;70.05
58243;BME280;50118;53.232;8.252;2022-08-19T09:26:47;101292.22;;;21.58;71.84
58243;BME280;50118;53.232;8.252;2022-08-19T09:29:12;101290.63;;;22.17;72.88
58243;BME280;50118;53.232;8.252;2022-08-19T09:31:38;101291.06;;;22.27;70.94
58243;BME280;50118;53.232;8.252;2022-08-19T09:34:03;101293.28;;;21.63;72.97
58243;BME280;50118;53.232;8.252;2022-08-19T09:36:33;101296.47;;;21.94;71.80
58243;BME280;50118;53.232;8.252;2022-08-19T09:39:05;101291.03;;;22.54;68.92
58243;BME280;50118;53.232;8.252;2022-08-19T09:41:31;101291.25;;;22.59;68.98
58243;BME280;50118;53.232;8.252;2022-08-19T09:43:58;101287.31;;;22.35;69.79
58243;BME280;50118;53.232;8.252;2022-08-19T09:46:26;101292.53;;;22.50;67.94
58243;BME280;50118;53.232;8.252;2022-08-19T09:48:53;101289.38;;;22.53;68.40
58243;BME280;50118;53.232;8.252;2022-08-19T09:51:22;101292.78;;;23.59;64.01
58243;BME280;50118;53.232;8.252;2022-08-19T09:53:49;101289.69;;;23.87;62.84
58243;BME280;50118;53.232;8.252;2022-08-19T09:56:17;101286.66;;;24.02;62.19
58243;BME280;50118;53.232;8.252;2022-08-19T09:58:43;101281.47;;;23.62;63.37
58243;BME280;50118;53.232;8.252;2022-08-19T10:01:09;101286.91;;;23.62;63.23
58243;BME280;50118;53.232;8.252;2022-08-19T10:03:35;101277.81;;;23.81;63.08
58243;BME280;50118;53.232;8.252;2022-08-19T10:06:04;101276.69;;;23.05;64.25
58243;BME280;50118;53.232;8.252;2022-08-19T10:08:34;101272.31;;;23.49;62.55
58243;BME280;50118;53.232;8.252;2022-08-19T10:11:01;101271.66;;;23.93;62.43
58243;BME280;50118;53.232;8.252;2022-08-19T10:13:29;101279.50;;;23.37;62.25
58243;BME280;50118;53.232;8.252;2022-08-19T10:16:01;101276.91;;;23.56;64.29
58243;BME280;50118;53.232;8.252;2022-08-19T10:18:27;101278.03;;;23.73;61.10
58243;BME280;50118;53.232;8.252;2022-08-19T10:21:04;101273.44;;;24.31;59.42
58243;BME280;50118;53.232;8.252;2022-08-19T10:23:32;101271.59;;;24.24;57.83
58243;BME280;50118;53.232;8.252;2022-08-19T10:26:00;101267.69;;;24.83;55.27
58243;BME280;50118;53.232;8.252;2022-08-19T10:28:25;101262.84;;;24.41;56.17
58243;BME280;50118;53.232;8.252;2022-08-19T10:30:51;101263.66;;;24.67;55.61
58243;BME280;50118;53.232;8.252;2022-08-19T10:33:16;101257.25;;;24.98;53.41
58243;BME280;50118;53.232;8.252;2022-08-19T10:35:42;101260.78;;;24.98;55.82
58243;BME280;50118;53.232;8.252;2022-08-19T10:38:07;101262.50;;;25.11;53.29
58243;BME280;50118;53.232;8.252;2022-08-19T10:40:32;101260.94;;;25.04;52.14
58243;BME280;50118;53.232;8.252;2022-08-19T10:42:58;101260.78;;;25.17;52.21
58243;BME280;50118;53.232;8.252;2022-08-19T10:45:23;101263.06;;;24.83;54.21
58243;BME280;50118;53.232;8.252;2022-08-19T10:47:52;101254.41;;;24.49;54.73
58243;BME280;50118;53.232;8.252;2022-08-19T10:50:18;101242.31;;;24.64;55.08
58243;BME280;50118;53.232;8.252;2022-08-19T10:53:07;101246.28;;;25.35;53.77
58243;BME280;50118;53.232;8.252;2022-08-19T10:55:35;101242.88;;;25.21;51.94
58243;BME280;50118;53.232;8.252;2022-08-19T10:58:20;101243.97;;;25.20;51.07
58243;BME280;50118;53.232;8.252;2022-08-19T11:00:57;101232.53;;;25.84;49.87
58243;BME280;50118;53.232;8.252;2022-08-19T11:03:25;101240.31;;;25.99;49.90
58243;BME280;50118;53.232;8.252;2022-08-19T11:06:05;101240.28;;;25.45;51.52
58243;BME280;50118;53.232;8.252;2022-08-19T11:08:32;101234.16;;;25.61;51.89
58243;BME280;50118;53.232;8.252;2022-08-19T11:10:59;101232.31;;;25.43;52.37
58243;BME280;50118;53.232;8.252;2022-08-19T11:13:34;101236.69;;;25.75;53.13
58243;BME280;50118;53.232;8.252;2022-08-19T11:16:08;101231.91;;;26.24;48.63
58243;BME280;50118;53.232;8.252;2022-08-19T11:18:38;101238.75;;;26.62;47.43
58243;BME280;50118;53.232;8.252;2022-08-19T11:21:09;101240.44;;;26.39;47.29
58243;BME280;50118;53.232;8.252;2022-08-19T11:23:34;101239.97;;;26.19;48.21
58243;BME280;50118;53.232;8.252;2022-08-19T11:26:00;101234.28;;;26.08;47.72
58243;BME280;50118;53.232;8.252;2022-08-19T11:28:26;101233.78;;;26.35;48.30
58243;BME280;50118;53.232;8.252;2022-08-19T11:30:52;101227.34;;;25.94;49.16
58243;BME280;50118;53.232;8.252;2022-08-19T11:33:17;101231.63;;;26.25;49.05
58243;BME280;50118;53.232;8.252;2022-08-19T11:35:44;101219.94;;;25.83;51.14
58243;BME280;50118;53.232;8.252;2022-08-19T11:38:09;101225.16;;;26.91;50.43
58243;BME280;50118;53.232;8.252;2022-08-19T11:40:36;101220.00;;;26.06;49.20
58243;BME280;50118;53.232;8.252;2022-08-19T11:43:02;101217.97;;;26.37;48.07
58243;BME280;50118;53.232;8.252;2022-08-19T11:45:28;101224.66;;;25.64;50.32
58243;BME280;50118;53.232;8.252;2022-08-19T11:47:54;101230.78;;;25.35;50.79
58243;BME280;50118;53.232;8.252;2022-08-19T11:50:19;101224.59;;;25.82;49.55
58243;BME280;50118;53.232;8.252;2022-08-19T11:52:46;101233.06;;;26.04;49.29
58243;BME280;50118;53.232;8.252;2022-08-19T11:57:32;101236.00;;;27.14;47.86
58243;BME280;50118;53.232;8.252;2022-08-19T11:59:57;101234.09;;;25.91;49.39
58243;BME280;50118;53.232;8.252;2022-08-19T12:02:23;101233.72;;;25.64;50.87
58243;BME280;50118;53.232;8.252;2022-08-19T12:04:49;101216.44;;;25.10;50.96
58243;BME280;50118;53.232;8.252;2022-08-19T12:07:14;101224.00;;;25.92;49.06
58243;BME280;50118;53.232;8.252;2022-08-19T12:09:40;101230.81;;;26.13;49.95
58243;BME280;50118;53.232;8.252;2022-08-19T12:12:06;101230.53;;;25.91;49.89
58243;BME280;50118;53.232;8.252;2022-08-19T12:14:32;101218.69;;;26.68;49.11
58243;BME280;50118;53.232;8.252;2022-08-19T12:16:57;101225.31;;;26.72;46.27
58243;BME280;50118;53.232;8.252;2022-08-19T12:19:23;101223.94;;;26.22;47.75
58243;BME280;50118;53.232;8.252;2022-08-19T12:21:50;101232.13;;;26.34;47.54
58243;BME280;50118;53.232;8.252;2022-08-19T12:24:16;101219.78;;;26.32;47.88
58243;BME280;50118;53.232;8.252;2022-08-19T12:26:48;101217.16;;;26.01;48.49
58243;BME280;50118;53.232;8.252;2022-08-19T12:29:13;101211.94;;;26.35;46.84
58243;BME280;50118;53.232;8.252;2022-08-19T12:31:40;101213.13;;;26.16;47.21
58243;BME280;50118;53.232;8.252;2022-08-19T12:34:05;101210.53;;;25.97;47.16
58243;BME280;50118;53.232;8.252;2022-08-19T12:36:31;101213.38;;;26.02;47.11
58243;BME280;50118;53.232;8.252;2022-08-19T12:38:58;101199.22;;;25.94;47.68
58243;BME280;50118;53.232;8.252;2022-08-19T12:41:24;101206.94;;;26.32;47.38
58243;BME280;50118;53.232;8.252;2022-08-19T12:43:50;101204.59;;;26.00;47.06
58243;BME280;50118;53.232;8.252;2022-08-19T12:46:16;101200.97;;;26.59;46.82
58243;BME280;50118;53.232;8.252;2022-08-19T12:48:42;101198.13;;;26.54;46.54
58243;BME280;50118;53.232;8.252;2022-08-19T12:51:12;101196.75;;;26.39;47.08
58243;BME280;50118;53.232;8.252;2022-08-19T12:53:38;101195.91;;;27.20;46.07
58243;BME280;50118;53.232;8.252;2022-08-19T12:56:04;101193.56;;;26.83;47.79
58243;BME280;50118;53.232;8.252;2022-08-19T12:58:30;101193.69;;;26.76;45.52
58243;BME280;50118;53.232;8.252;2022-08-19T13:00:56;101191.81;;;26.77;47.12
58243;BME280;50118;53.232;8.252;2022-08-19T13:03:21;101186.09;;;27.07;46.89
58243;BME280;50118;53.232;8.252;2022-08-19T13:05:54;101198.38;;;26.40;48.11
58243;BME280;50118;53.232;8.252;2022-08-19T13:08:19;101188.91;;;26.31;49.46
58243;BME280;50118;53.232;8.252;2022-08-19T13:10:45;101180.47;;;26.33;48.26
58243;BME280;50118;53.232;8.252;2022-08-19T13:13:11;101186.28;;;26.36;49.89
58243;BME280;50118;53.232;8.252;2022-08-19T13:15:39;101181.44;;;26.91;48.34
58243;BME280;50118;53.232;8.252;2022-08-19T13:18:06;101180.09;;;25.82;49.55